Time;durP1;ratioP1;P1;durP2;ratioP2;P2;SDS_P1;SDS_P2;PMS_P1;PMS_P2;Temp;Humidity;BMP_temperature;BMP_pressure;BME280_temperature;BME280_humidity;BME280_pressure;Samples;Min_cycle;Max_cycle;Signal;HPM_P1;HPM_P2
2023/02/20 00:01:13;;;;;;;10.65;5.82;;;;;;;;;;4991251;28;20026;-72
2023/02/20 00:03:38;;;;;;;11.55;6.05;;;;;;;;;;4991495;28;20029;-72
2023/02/20 00:06:04;;;;;;;11.77;6.13;;;;;;;;;;4991723;28;20450;-72
2023/02/20 00:08:29;;;;;;;12.45;6.53;;;;;;;;;;4991363;28;20053;-72
2023/02/20 00:10:55;;;;;;;10.75;6.07;;;;;;;;;;4991500;28;20470;-63
2023/02/20 00:13:20;;;;;;;10.20;5.63;;;;;;;;;;4991482;28;20401;-63
2023/02/20 00:15:46;;;;;;;8.38;5.20;;;;;;;;;;4991308;28;20034;-71
2023/02/20 00:18:11;;;;;;;8.32;4.95;;;;;;;;;;4990731;28;20058;-71
2023/02/20 00:20:36;;;;;;;11.02;5.65;;;;;;;;;;4990901;28;20026;-71
2023/02/20 00:23:02;;;;;;;10.07;5.88;;;;;;;;;;4973896;28;20081;-72
2023/02/20 00:25:27;;;;;;;10.63;5.38;;;;;;;;;;4992153;28;20118;-72
2023/02/20 00:27:53;;;;;;;9.25;5.53;;;;;;;;;;4976687;28;20034;-72
2023/02/20 00:30:19;;;;;;;11.68;5.88;;;;;;;;;;4994949;28;20042;-71
2023/02/20 00:32:46;;;;;;;12.38;5.50;;;;;;;;;;4994733;28;20471;-62
2023/02/20 00:35:12;;;;;;;8.88;5.53;;;;;;;;;;4995117;28;20065;-63
2023/02/20 00:37:38;;;;;;;11.45;5.53;;;;;;;;;;4994657;28;20073;-63
2023/02/20 00:40:04;;;;;;;9.45;5.63;;;;;;;;;;4994943;28;20062;-63
2023/02/20 00:42:30;;;;;;;15.00;6.25;;;;;;;;;;4976900;28;20040;-62
2023/02/20 00:44:57;;;;;;;11.60;5.38;;;;;;;;;;4977216;28;20450;-63
2023/02/20 00:47:22;;;;;;;9.57;5.32;;;;;;;;;;4994567;28;20034;-63
2023/02/20 00:49:47;;;;;;;10.27;5.68;;;;;;;;;;4993973;28;20030;-63
2023/02/20 00:52:13;;;;;;;9.70;5.40;;;;;;;;;;4977741;28;20434;-63
2023/02/20 00:54:38;;;;;;;10.45;5.30;;;;;;;;;;4994599;28;20026;-72
2023/02/20 00:57:04;;;;;;;9.02;5.18;;;;;;;;;;4976278;28;20382;-72
2023/02/20 00:59:29;;;;;;;7.07;4.82;;;;;;;;;;4976771;28;20037;-72
2023/02/20 01:01:54;;;;;;;9.15;5.30;;;;;;;;;;4960819;28;20042;-71
2023/02/20 01:04:20;;;;;;;9.57;4.65;;;;;;;;;;4994181;28;20113;-62
2023/02/20 01:06:45;;;;;;;10.23;5.30;;;;;;;;;;4976726;28;20034;-62
2023/02/20 01:09:11;;;;;;;7.25;4.38;;;;;;;;;;4994232;28;20038;-62
2023/02/20 01:11:36;;;;;;;8.10;4.88;;;;;;;;;;4993957;28;20061;-63
2023/02/20 01:14:02;;;;;;;11.93;5.43;;;;;;;;;;4976603;28;20046;-69
2023/02/20 01:16:28;;;;;;;8.68;4.57;;;;;;;;;;4992714;28;20026;-69
2023/02/20 01:18:54;;;;;;;10.27;5.20;;;;;;;;;;4976713;28;20377;-70
2023/02/20 01:21:19;;;;;;;9.27;5.60;;;;;;;;;;4976777;28;20113;-70
2023/02/20 01:23:44;;;;;;;9.82;5.45;;;;;;;;;;4975840;28;20041;-69
2023/02/20 01:26:10;;;;;;;8.27;5.50;;;;;;;;;;4994102;28;20039;-72
2023/02/20 01:28:35;;;;;;;10.95;5.32;;;;;;;;;;4994233;28;20039;-72
2023/02/20 01:31:02;;;;;;;9.50;5.78;;;;;;;;;;4960912;28;20035;-71
2023/02/20 01:33:27;;;;;;;14.25;5.97;;;;;;;;;;4993835;28;20080;-70
2023/02/20 01:35:53;;;;;;;11.50;5.65;;;;;;;;;;4991585;28;20048;-69
2023/02/20 01:38:20;;;;;;;8.52;5.10;;;;;;;;;;4992769;28;20455;-70
2023/02/20 01:40:46;;;;;;;9.68;5.20;;;;;;;;;;4992730;28;20109;-69
2023/02/20 01:43:12;;;;;;;9.52;5.30;;;;;;;;;;4975461;28;20045;-70
2023/02/20 01:45:38;;;;;;;10.10;5.28;;;;;;;;;;4975401;28;20054;-70
2023/02/20 01:48:04;;;;;;;10.02;5.18;;;;;;;;;;4993112;28;20045;-70
2023/02/20 01:50:32;;;;;;;7.63;5.15;;;;;;;;;;4993358;28;20050;-71
2023/02/20 01:53:01;;;;;;;7.65;4.68;;;;;;;;;;4975455;28;20096;-71
2023/02/20 01:55:28;;;;;;;11.05;5.43;;;;;;;;;;4992508;28;20080;-70
2023/02/20 01:57:56;;;;;;;13.15;6.57;;;;;;;;;;4993371;28;20048;-71
2023/02/20 02:00:23;;;;;;;10.00;5.25;;;;;;;;;;4975839;28;20369;-70
2023/02/20 02:02:55;;;;;;;8.48;4.97;;;;;;;;;;4993386;28;20034;-72
2023/02/20 02:05:21;;;;;;;16.08;7.13;;;;;;;;;;4993335;28;20045;-70
2023/02/20 02:07:51;;;;;;;11.43;5.93;;;;;;;;;;4993324;28;20042;-70
2023/02/20 02:10:19;;;;;;;13.05;6.50;;;;;;;;;;4991658;28;20038;-63
2023/02/20 02:12:46;;;;;;;11.50;6.35;;;;;;;;;;4992936;28;20038;-63
2023/02/20 02:15:16;;;;;;;10.95;5.68;;;;;;;;;;4975547;28;20479;-63
2023/02/20 02:17:41;;;;;;;8.02;5.38;;;;;;;;;;4992803;28;20664;-63
2023/02/20 02:20:18;;;;;;;7.82;4.53;;;;;;;;;;4991532;28;20491;-63
2023/02/20 02:22:49;;;;;;;7.93;3.58;;;;;;;;;;4992966;28;20033;-63
2023/02/20 02:25:18;;;;;;;6.00;4.05;;;;;;;;;;4992864;28;20036;-63
2023/02/20 02:27:55;;;;;;;7.45;4.15;;;;;;;;;;4975300;28;20053;-63
2023/02/20 02:30:40;;;;;;;9.00;4.10;;;;;;;;;;4992475;28;20438;-69
2023/02/20 02:33:19;;;;;;;7.15;3.72;;;;;;;;;;4992665;28;20154;-71
2023/02/20 02:35:57;;;;;;;6.07;4.00;;;;;;;;;;4992754;28;20092;-71
2023/02/20 02:38:22;;;;;;;7.10;4.05;;;;;;;;;;4975481;28;20053;-72
2023/02/20 02:40:53;;;;;;;7.95;3.33;;;;;;;;;;4975059;28;20357;-71
2023/02/20 02:43:31;;;;;;;7.03;4.13;;;;;;;;;;4992506;28;20026;-71
2023/02/20 02:46:14;;;;;;;7.38;4.05;;;;;;;;;;4992556;28;20030;-71
2023/02/20 02:48:44;;;;;;;7.97;4.45;;;;;;;;;;4991697;28;20030;-71
2023/02/20 02:51:17;;;;;;;5.22;4.20;;;;;;;;;;4971545;28;20054;-71
2023/02/20 02:54:02;;;;;;;9.05;3.97;;;;;;;;;;4971771;28;20039;-71
2023/02/20 02:56:38;;;;;;;8.57;4.15;;;;;;;;;;4987419;28;20038;-71
2023/02/20 02:59:04;;;;;;;7.45;4.10;;;;;;;;;;4987684;28;20031;-71
2023/02/20 03:01:30;;;;;;;5.20;3.80;;;;;;;;;;4972955;28;20019;-71
2023/02/20 03:03:56;;;;;;;7.82;4.45;;;;;;;;;;4988097;28;20045;-71
2023/02/20 03:06:28;;;;;;;10.00;4.32;;;;;;;;;;4972759;28;20367;-71
2023/02/20 03:09:13;;;;;;;7.38;4.20;;;;;;;;;;4987661;28;20402;-71
2023/02/20 03:11:39;;;;;;;9.65;4.25;;;;;;;;;;4970763;28;20050;-72
2023/02/20 03:16:56;;;;;;;10.13;4.97;;;;;;;;;;4971833;28;20823;-63
2023/02/20 03:19:26;;;;;;;11.13;5.75;;;;;;;;;;4972498;28;20042;-63
2023/02/20 03:21:54;;;;;;;10.73;5.60;;;;;;;;;;4972514;28;20039;-63
2023/02/20 03:24:20;;;;;;;15.55;6.70;;;;;;;;;;4986714;28;20023;-63
2023/02/20 03:26:47;;;;;;;14.63;6.07;;;;;;;;;;4971182;28;20105;-61
2023/02/20 03:29:23;;;;;;;13.95;6.25;;;;;;;;;;4970896;28;20047;-61
2023/02/20 03:45:40;;;;;;;11.82;5.90;;;;;;;;;;4970440;28;20094;-71
2023/02/20 03:48:09;;;;;;;9.73;5.38;;;;;;;;;;4986825;28;20042;-71
2023/02/20 03:50:34;;;;;;;10.77;5.63;;;;;;;;;;4989751;28;20046;-71
2023/02/20 03:53:00;;;;;;;12.68;6.28;;;;;;;;;;4974260;28;20116;-71
2023/02/20 03:55:26;;;;;;;15.68;7.63;;;;;;;;;;4991954;28;20486;-71
2023/02/20 03:57:55;;;;;;;16.42;9.05;;;;;;;;;;4974328;28;20038;-70
2023/02/20 04:00:29;;;;;;;16.75;8.82;;;;;;;;;;4960668;28;20438;-71
2023/02/20 04:02:57;;;;;;;17.90;8.82;;;;;;;;;;4977738;28;20505;-70
2023/02/20 04:05:28;;;;;;;15.75;8.52;;;;;;;;;;4977952;28;20061;-70
2023/02/20 04:07:56;;;;;;;15.25;7.45;;;;;;;;;;4977711;28;20022;-70
2023/02/20 04:10:25;;;;;;;13.23;7.70;;;;;;;;;;4977967;28;20121;-71
2023/02/20 04:12:51;;;;;;;13.00;7.07;;;;;;;;;;4977520;28;20022;-71
2023/02/20 04:15:17;;;;;;;15.07;7.57;;;;;;;;;;4993715;28;20050;-71
2023/02/20 04:17:49;;;;;;;15.40;7.28;;;;;;;;;;4977625;28;20125;-73
2023/02/20 04:20:15;;;;;;;13.48;7.15;;;;;;;;;;4995080;28;20054;-72
2023/02/20 04:22:50;;;;;;;13.68;7.45;;;;;;;;;;4977410;28;20420;-71
2023/02/20 04:25:39;;;;;;;14.43;7.40;;;;;;;;;;4977528;28;20038;-71
2023/02/20 04:28:06;;;;;;;16.42;7.72;;;;;;;;;;4994688;28;20034;-71
2023/02/20 04:30:41;;;;;;;14.02;7.35;;;;;;;;;;4977148;28;20415;-73
2023/02/20 04:33:09;;;;;;;12.13;6.90;;;;;;;;;;4977229;28;20034;-73
2023/02/20 04:35:35;;;;;;;12.85;6.93;;;;;;;;;;4993577;28;20461;-73
2023/02/20 04:38:00;;;;;;;13.85;7.20;;;;;;;;;;4994526;28;20030;-73
2023/02/20 04:40:25;;;;;;;10.55;6.38;;;;;;;;;;4994614;28;20023;-72
2023/02/20 04:42:51;;;;;;;15.18;7.22;;;;;;;;;;4994634;28;20026;-72
2023/02/20 04:45:17;;;;;;;12.38;7.15;;;;;;;;;;4993035;28;20026;-62
2023/02/20 04:47:45;;;;;;;11.00;6.57;;;;;;;;;;4976843;28;20577;-62
2023/02/20 04:50:32;;;;;;;9.30;6.20;;;;;;;;;;4993950;28;20043;-62
2023/02/20 04:52:58;;;;;;;11.70;6.65;;;;;;;;;;4993405;28;20050;-62
2023/02/20 04:55:24;;;;;;;17.10;8.90;;;;;;;;;;4960311;28;20061;-63
2023/02/20 04:57:54;;;;;;;21.88;9.07;;;;;;;;;;4960508;28;20030;-62
2023/02/20 05:00:21;;;;;;;19.10;9.70;;;;;;;;;;4976160;28;20567;-62
2023/02/20 05:02:47;;;;;;;22.15;10.00;;;;;;;;;;4993760;28;20072;-63
2023/02/20 05:05:18;;;;;;;16.35;8.20;;;;;;;;;;4992724;28;20141;-63
2023/02/20 05:07:43;;;;;;;12.55;7.65;;;;;;;;;;4993844;28;20822;-63
2023/02/20 05:10:12;;;;;;;10.40;6.80;;;;;;;;;;4975856;28;20096;-62
2023/02/20 05:12:37;;;;;;;12.77;6.57;;;;;;;;;;4974946;28;20018;-63
2023/02/20 05:15:03;;;;;;;11.18;6.60;;;;;;;;;;4993750;28;20085;-63
2023/02/20 05:17:28;;;;;;;12.25;6.93;;;;;;;;;;4993750;28;20066;-73
2023/02/20 05:19:53;;;;;;;10.13;6.70;;;;;;;;;;4993979;28;20033;-73
2023/02/20 05:22:18;;;;;;;13.60;6.90;;;;;;;;;;4994303;28;20030;-73
2023/02/20 05:24:48;;;;;;;9.52;6.55;;;;;;;;;;4993862;28;20029;-68
2023/02/20 05:27:14;;;;;;;12.25;6.97;;;;;;;;;;4978416;28;20767;-73
2023/02/20 05:29:53;;;;;;;12.75;6.80;;;;;;;;;;4993755;28;20030;-64
2023/02/20 05:32:19;;;;;;;12.65;7.18;;;;;;;;;;4996489;28;20113;-66
2023/02/20 05:34:45;;;;;;;10.80;6.82;;;;;;;;;;4996158;28;20120;-66
2023/02/20 05:37:14;;;;;;;8.65;6.68;;;;;;;;;;4986498;23;20074;-60
2023/02/20 05:39:39;;;;;;;11.25;6.40;;;;;;;;;;4996427;28;20034;-66
2023/02/20 05:44:54;;;;;;;11.10;5.72;;;;;;;;;;5041666;23;20026;-60
2023/02/20 05:47:20;;;;;;;9.90;6.28;;;;;;;;;;4996036;28;20050;-60
2023/02/20 05:49:45;;;;;;;10.60;6.53;;;;;;;;;;5015852;28;20028;-59
2023/02/20 05:52:11;;;;;;;13.50;7.07;;;;;;;;;;5030216;28;20088;-59
2023/02/20 05:54:37;;;;;;;11.10;6.80;;;;;;;;;;5015113;28;20363;-59
2023/02/20 05:57:03;;;;;;;9.82;6.57;;;;;;;;;;5014973;28;20033;-59
2023/02/20 05:59:28;;;;;;;11.90;6.40;;;;;;;;;;5014575;28;20034;-60
2023/02/20 06:01:58;;;;;;;9.02;6.03;;;;;;;;;;4997444;28;20105;-59
2023/02/20 06:04:23;;;;;;;11.27;5.97;;;;;;;;;;5014547;28;20489;-59
2023/02/20 06:06:49;;;;;;;11.63;5.60;;;;;;;;;;4980618;28;20025;-59
2023/02/20 06:09:15;;;;;;;11.07;5.55;;;;;;;;;;5029196;28;20117;-59
2023/02/20 06:11:41;;;;;;;7.25;4.78;;;;;;;;;;5013231;28;20061;-59
2023/02/20 06:14:07;;;;;;;7.55;5.15;;;;;;;;;;5013829;28;20521;-59
2023/02/20 06:16:33;;;;;;;7.68;5.07;;;;;;;;;;5014087;28;20033;-59
2023/02/20 06:18:59;;;;;;;8.77;4.32;;;;;;;;;;5015053;28;20029;-59
2023/02/20 06:21:24;;;;;;;9.38;5.82;;;;;;;;;;5014738;28;20458;-59
2023/02/20 06:23:51;;;;;;;10.77;6.18;;;;;;;;;;5018517;28;20014;-59
2023/02/20 06:26:16;;;;;;;11.55;6.20;;;;;;;;;;5015692;28;20029;-59
2023/02/20 06:28:42;;;;;;;9.15;5.85;;;;;;;;;;5032353;28;20025;-59
2023/02/20 06:31:08;;;;;;;11.40;7.07;;;;;;;;;;5014691;28;20457;-59
2023/02/20 06:33:33;;;;;;;12.75;7.50;;;;;;;;;;5015106;28;20024;-59
2023/02/20 06:35:59;;;;;;;7.55;4.93;;;;;;;;;;5031868;28;20026;-59
2023/02/20 06:38:24;;;;;;;8.95;5.32;;;;;;;;;;5031585;28;20049;-59
2023/02/20 06:40:50;;;;;;;10.52;5.93;;;;;;;;;;5032012;28;20045;-59
2023/02/20 06:43:15;;;;;;;9.20;5.70;;;;;;;;;;5032270;28;20111;-59
2023/02/20 06:45:41;;;;;;;11.90;6.05;;;;;;;;;;5032725;28;20160;-60
2023/02/20 06:48:06;;;;;;;11.60;6.15;;;;;;;;;;5032816;28;20030;-58
2023/02/20 06:50:31;;;;;;;9.45;5.88;;;;;;;;;;5033364;28;20053;-59
2023/02/20 06:52:56;;;;;;;7.18;4.43;;;;;;;;;;4999447;28;20068;-59
2023/02/20 06:55:22;;;;;;;10.55;5.05;;;;;;;;;;5032880;28;20115;-59
2023/02/20 06:57:48;;;;;;;8.02;4.25;;;;;;;;;;5033056;28;20061;-59
2023/02/20 07:00:16;;;;;;;5.85;4.00;;;;;;;;;;5034091;28;20052;-59
2023/02/20 07:02:41;;;;;;;10.02;4.15;;;;;;;;;;5016059;28;20079;-59
2023/02/20 07:05:08;;;;;;;8.55;4.88;;;;;;;;;;5033280;28;20454;-59
2023/02/20 07:07:33;;;;;;;11.90;5.00;;;;;;;;;;5015538;28;20025;-59
2023/02/20 07:10:00;;;;;;;8.00;4.15;;;;;;;;;;5033737;28;20025;-59
2023/02/20 07:12:28;;;;;;;7.32;4.35;;;;;;;;;;5033856;28;20036;-59
2023/02/20 07:14:53;;;;;;;7.63;5.30;;;;;;;;;;5034088;28;20393;-59
2023/02/20 07:17:18;;;;;;;8.27;5.05;;;;;;;;;;4999674;28;20033;-59
2023/02/20 07:19:43;;;;;;;9.85;4.65;;;;;;;;;;5033778;28;20022;-59
2023/02/20 07:22:09;;;;;;;7.82;4.85;;;;;;;;;;5034038;28;20018;-59
2023/02/20 07:24:35;;;;;;;8.55;4.68;;;;;;;;;;5033710;28;20362;-59
2023/02/20 07:27:01;;;;;;;7.00;4.03;;;;;;;;;;5015995;28;20133;-59
2023/02/20 07:29:31;;;;;;;6.90;4.35;;;;;;;;;;5034184;28;20101;-60
2023/02/20 07:31:56;;;;;;;8.43;4.15;;;;;;;;;;5033580;28;20030;-59
2023/02/20 07:34:21;;;;;;;7.07;4.45;;;;;;;;;;5033322;28;20097;-59
2023/02/20 07:36:47;;;;;;;7.88;4.20;;;;;;;;;;5015812;28;20041;-60
2023/02/20 07:39:12;;;;;;;8.27;4.72;;;;;;;;;;5033821;28;20080;-59
2023/02/20 07:41:38;;;;;;;6.22;4.32;;;;;;;;;;5033542;28;20509;-59
2023/02/20 07:44:04;;;;;;;7.28;4.22;;;;;;;;;;5033494;28;20025;-60
2023/02/20 07:46:32;;;;;;;7.25;4.30;;;;;;;;;;5033316;28;20112;-60
2023/02/20 07:49:02;;;;;;;6.70;4.00;;;;;;;;;;5033455;28;20029;-60
2023/02/20 07:51:28;;;;;;;5.40;3.83;;;;;;;;;;5033992;28;20029;-60
2023/02/20 07:53:53;;;;;;;7.20;4.25;;;;;;;;;;5015790;28;20355;-60
2023/02/20 07:56:19;;;;;;;9.05;4.93;;;;;;;;;;5033326;28;20044;-59
2023/02/20 07:58:45;;;;;;;6.93;4.22;;;;;;;;;;5033602;28;20029;-60
2023/02/20 08:01:10;;;;;;;8.07;4.22;;;;;;;;;;5033301;28;20026;-59
2023/02/20 08:03:35;;;;;;;6.13;4.43;;;;;;;;;;5033603;28;20036;-59
2023/02/20 08:06:00;;;;;;;7.20;4.00;;;;;;;;;;5033304;28;20022;-60
2023/02/20 08:08:26;;;;;;;9.50;4.45;;;;;;;;;;5033254;28;20037;-60
2023/02/20 08:10:51;;;;;;;7.32;4.65;;;;;;;;;;5015587;28;20029;-60
2023/02/20 08:13:17;;;;;;;5.65;4.68;;;;;;;;;;5033185;28;20107;-60
2023/02/20 08:15:43;;;;;;;7.10;4.38;;;;;;;;;;5033763;28;20039;-59
2023/02/20 08:18:09;;;;;;;7.18;4.75;;;;;;;;;;5033399;28;20048;-60
2023/02/20 08:20:34;;;;;;;7.60;5.25;;;;;;;;;;5033428;28;20022;-60
2023/02/20 08:23:00;;;;;;;6.97;4.32;;;;;;;;;;5033164;28;20450;-60
2023/02/20 08:25:25;;;;;;;7.25;4.50;;;;;;;;;;5015792;28;20029;-60
2023/02/20 08:27:50;;;;;;;5.55;3.83;;;;;;;;;;5033954;28;20393;-60
2023/02/20 08:30:18;;;;;;;7.45;4.88;;;;;;;;;;5015489;28;20040;-59
2023/02/20 08:32:44;;;;;;;8.77;4.93;;;;;;;;;;4999042;28;20040;-59
2023/02/20 08:35:09;;;;;;;6.70;4.47;;;;;;;;;;5015365;28;20030;-60
2023/02/20 08:37:34;;;;;;;6.88;3.83;;;;;;;;;;5032911;28;20029;-60
2023/02/20 08:40:00;;;;;;;7.47;3.95;;;;;;;;;;5033532;28;20351;-59
2023/02/20 08:42:25;;;;;;;7.55;4.80;;;;;;;;;;5033288;28;20057;-59
2023/02/20 08:44:50;;;;;;;6.68;5.10;;;;;;;;;;5032967;28;20033;-59
2023/02/20 08:47:18;;;;;;;6.88;5.00;;;;;;;;;;5035297;28;20042;-59
2023/02/20 08:49:45;;;;;;;10.88;6.07;;;;;;;;;;5036821;28;20380;-59
2023/02/20 08:52:10;;;;;;;10.45;5.53;;;;;;;;;;5018706;28;20381;-60
2023/02/20 08:54:35;;;;;;;6.95;4.05;;;;;;;;;;5018796;28;20038;-59
2023/02/20 08:57:01;;;;;;;11.27;5.80;;;;;;;;;;5036589;28;20035;-59
2023/02/20 08:59:29;;;;;;;7.70;5.43;;;;;;;;;;5036356;28;20026;-59
2023/02/20 09:01:54;;;;;;;6.60;4.80;;;;;;;;;;5036321;28;20389;-59
2023/02/20 09:04:21;;;;;;;8.27;5.25;;;;;;;;;;5019090;28;20032;-59
2023/02/20 09:06:46;;;;;;;9.05;5.25;;;;;;;;;;5036492;28;20465;-59
2023/02/20 09:09:12;;;;;;;8.05;5.00;;;;;;;;;;5036202;28;20083;-59
2023/02/20 09:11:37;;;;;;;2.92;2.40;;;;;;;;;;5036124;28;20017;-60
2023/02/20 09:14:02;;;;;;;6.38;3.83;;;;;;;;;;5018767;28;20147;-59
2023/02/20 09:16:28;;;;;;;7.30;4.68;;;;;;;;;;5036246;28;20036;-60
2023/02/20 09:18:54;;;;;;;7.53;4.55;;;;;;;;;;5035988;28;20033;-59
2023/02/20 09:21:20;;;;;;;6.07;4.28;;;;;;;;;;5035932;28;20030;-60
2023/02/20 09:23:45;;;;;;;6.75;4.15;;;;;;;;;;5036398;28;20029;-60
2023/02/20 09:26:11;;;;;;;3.65;2.90;;;;;;;;;;5035874;28;20033;-59
2023/02/20 09:28:36;;;;;;;6.05;3.65;;;;;;;;;;5036099;28;20034;-59
2023/02/20 09:31:02;;;;;;;6.80;3.90;;;;;;;;;;5035804;28;20032;-59
2023/02/20 09:33:27;;;;;;;6.80;4.93;;;;;;;;;;5036042;28;20030;-59
2023/02/20 09:35:56;;;;;;;5.68;3.97;;;;;;;;;;5035938;28;20018;-59
2023/02/20 09:38:25;;;;;;;5.35;3.65;;;;;;;;;;5035586;28;20156;-60
2023/02/20 09:40:52;;;;;;;7.80;4.07;;;;;;;;;;5035604;28;20022;-59
2023/02/20 09:43:27;;;;;;;5.80;3.15;;;;;;;;;;5035794;28;20033;-60
2023/02/20 09:46:05;;;;;;;5.90;3.72;;;;;;;;;;5035246;28;20049;-60
2023/02/20 09:48:46;;;;;;;4.57;2.90;;;;;;;;;;5035982;28;20033;-59
2023/02/20 09:51:21;;;;;;;4.75;2.40;;;;;;;;;;5035417;28;20481;-59
2023/02/20 09:54:04;;;;;;;3.28;2.25;;;;;;;;;;5035616;28;20044;-60
2023/02/20 09:56:32;;;;;;;7.60;3.80;;;;;;;;;;5035180;28;20045;-59
2023/02/20 09:59:18;;;;;;;4.28;3.30;;;;;;;;;;5018207;28;20022;-60
2023/02/20 10:01:51;;;;;;;7.32;4.38;;;;;;;;;;5035470;28;20026;-59
2023/02/20 10:04:19;;;;;;;7.55;3.17;;;;;;;;;;5036667;28;20095;-59
2023/02/20 10:06:45;;;;;;;3.85;3.22;;;;;;;;;;5037170;28;20362;-59
2023/02/20 10:09:12;;;;;;;6.95;3.38;;;;;;;;;;5035639;28;20034;-59
2023/02/20 10:11:43;;;;;;;6.05;3.67;;;;;;;;;;5035286;28;20030;-60
2023/02/20 10:14:27;;;;;;;5.88;2.92;;;;;;;;;;5017276;28;20397;-60
2023/02/20 10:17:08;;;;;;;4.88;2.88;;;;;;;;;;5017410;28;20037;-60
2023/02/20 10:19:33;;;;;;;;;;;;;;;;;;5035560;28;20120;-59
2023/02/20 10:22:10;;;;;;;3.43;3.03;;;;;;;;;;5035124;28;20019;-59
2023/02/20 10:24:47;;;;;;;4.85;3.83;;;;;;;;;;5035000;28;20261;-59
2023/02/20 10:27:24;;;;;;;5.25;3.50;;;;;;;;;;5034685;28;20029;-60
2023/02/20 10:29:50;;;;;;;3.67;3.38;;;;;;;;;;5034913;28;20038;-60
2023/02/20 10:32:19;;;;;;;2.75;2.55;;;;;;;;;;5034842;28;20036;-60
2023/02/20 10:35:03;;;;;;;2.57;2.37;;;;;;;;;;5034596;28;20091;-59
2023/02/20 10:37:34;;;;;;;5.45;3.13;;;;;;;;;;5034695;28;20287;-60
2023/02/20 10:40:03;;;;;;;3.40;2.85;;;;;;;;;;5034508;28;20025;-60
2023/02/20 10:42:32;;;;;;;3.57;2.53;;;;;;;;;;5034437;28;20539;-59
2023/02/20 10:45:08;;;;;;;3.63;2.95;;;;;;;;;;5034503;28;20742;-60
2023/02/20 10:47:41;;;;;;;1.85;1.75;;;;;;;;;;5034606;28;20041;-59
2023/02/20 10:50:22;;;;;;;3.38;2.85;;;;;;;;;;5034239;28;20033;-60
2023/02/20 10:52:47;;;;;;;;;;;;;;;;;;5034939;28;20040;-59
2023/02/20 10:55:18;;;;;;;3.50;2.20;;;;;;;;;;5034203;28;20311;-59
2023/02/20 10:57:47;;;;;;;5.00;3.15;;;;;;;;;;5034597;28;20057;-59
2023/02/20 11:00:18;;;;;;;4.68;3.47;;;;;;;;;;5034088;28;20031;-59
2023/02/20 11:02:50;;;;;;;2.17;1.95;;;;;;;;;;5034588;28;20503;-59
2023/02/20 11:05:18;;;;;;;4.05;2.75;;;;;;;;;;5016375;28;20083;-59
2023/02/20 11:07:43;;;;;;;2.55;2.35;;;;;;;;;;5016241;28;20032;-59
2023/02/20 11:10:08;;;;;;;2.10;1.95;;;;;;;;;;5033660;28;20025;-60
2023/02/20 11:12:41;;;;;;;3.13;2.78;;;;;;;;;;5033892;28;20033;-59
2023/02/20 11:15:18;;;;;;;4.70;3.33;;;;;;;;;;5033869;28;20032;-60
2023/02/20 11:17:43;;;;;;;3.30;2.60;;;;;;;;;;5034314;28;20041;-59
2023/02/20 11:20:27;;;;;;;3.65;2.58;;;;;;;;;;5033772;28;20044;-59
2023/02/20 11:22:53;;;;;;;4.35;2.75;;;;;;;;;;5033764;28;20033;-59
2023/02/20 11:25:19;;;;;;;5.18;2.70;;;;;;;;;;5034002;28;20071;-59
2023/02/20 11:27:46;;;;;;;4.10;3.05;;;;;;;;;;5033966;28;20033;-60
2023/02/20 11:30:14;;;;;;;3.78;2.92;;;;;;;;;;5033693;28;20025;-59
2023/02/20 11:32:41;;;;;;;3.42;3.08;;;;;;;;;;5034212;28;20116;-59
2023/02/20 11:35:16;;;;;;;5.25;2.95;;;;;;;;;;5033564;28;20150;-59
2023/02/20 11:37:42;;;;;;;3.17;2.67;;;;;;;;;;5033797;28;20041;-59
2023/02/20 11:40:25;;;;;;;3.35;2.88;;;;;;;;;;5015967;28;20025;-59
2023/02/20 11:42:51;;;;;;;2.92;1.95;;;;;;;;;;5016243;28;20034;-60
2023/02/20 11:45:22;;;;;;;3.22;2.17;;;;;;;;;;5033303;28;20033;-59
2023/02/20 11:48:05;;;;;;;3.20;2.90;;;;;;;;;;5033462;28;20164;-60
2023/02/20 11:50:37;;;;;;;2.90;2.22;;;;;;;;;;5033429;28;20028;-59
2023/02/20 11:53:06;;;;;;;3.28;2.45;;;;;;;;;;5033421;28;20052;-59
2023/02/20 11:55:33;;;;;;;3.10;2.55;;;;;;;;;;5033677;28;20053;-60
2023/02/20 11:57:58;;;;;;;3.15;2.53;;;;;;;;;;5033327;28;20413;-65
2023/02/20 12:00:28;;;;;;;3.28;2.53;;;;;;;;;;5015687;28;20034;-65
2023/02/20 12:03:03;;;;;;;4.93;3.17;;;;;;;;;;4999507;28;20025;-65
2023/02/20 12:05:36;;;;;;;3.38;2.30;;;;;;;;;;5033608;28;20036;-65
2023/02/20 12:08:02;;;;;;;2.58;2.28;;;;;;;;;;5033847;28;20037;-65
2023/02/20 12:10:35;;;;;;;3.90;2.20;;;;;;;;;;5033520;28;20125;-66
2023/02/20 12:13:01;;;;;;;2.90;2.25;;;;;;;;;;5033517;28;20040;-65
2023/02/20 12:15:27;;;;;;;3.40;2.33;;;;;;;;;;5033227;28;20112;-65
2023/02/20 12:17:56;;;;;;;2.88;2.55;;;;;;;;;;5015410;28;20088;-65
2023/02/20 12:20:23;;;;;;;2.92;1.77;;;;;;;;;;5033502;28;20083;-65
2023/02/20 12:23:14;;;;;;;3.83;2.38;;;;;;;;;;5036659;28;20021;-65
2023/02/20 12:25:58;;;;;;;1.52;1.25;;;;;;;;;;5019604;28;20033;-66
2023/02/20 12:28:23;;;;;;;3.22;2.88;;;;;;;;;;5037249;28;20044;-65
2023/02/20 12:30:53;;;;;;;4.80;3.25;;;;;;;;;;5037092;28;20021;-65
2023/02/20 12:33:36;;;;;;;2.75;2.10;;;;;;;;;;5019139;28;20162;-65
2023/02/20 12:36:20;;;;;;;4.85;3.75;;;;;;;;;;5037100;28;20029;-66
2023/02/20 12:38:54;;;;;;;4.05;2.70;;;;;;;;;;5036743;28;20033;-66
2023/02/20 12:41:25;;;;;;;7.45;3.60;;;;;;;;;;5037011;28;20036;-66
2023/02/20 12:44:09;;;;;;;3.03;2.75;;;;;;;;;;5036923;28;20116;-66
2023/02/20 12:46:35;;;;;;;5.18;3.40;;;;;;;;;;5036447;28;20053;-66
2023/02/20 12:49:09;;;;;;;3.20;3.00;;;;;;;;;;5036801;28;20042;-66
2023/02/20 12:51:34;;;;;;;1.90;1.58;;;;;;;;;;5018860;28;20049;-66
2023/02/20 12:54:20;;;;;;;3.40;2.88;;;;;;;;;;5036800;28;20025;-66
2023/02/20 12:56:52;;;;;;;4.60;3.22;;;;;;;;;;5018620;28;20037;-66
2023/02/20 12:59:29;;;;;;;5.15;3.13;;;;;;;;;;5036923;28;20058;-66
2023/02/20 13:01:58;;;;;;;3.85;2.60;;;;;;;;;;5036576;28;20040;-66
2023/02/20 13:04:24;;;;;;;3.60;3.30;;;;;;;;;;5036232;28;20064;-66
2023/02/20 13:06:58;;;;;;;3.13;2.83;;;;;;;;;;5036266;28;20022;-66
2023/02/20 13:09:32;;;;;;;3.08;2.45;;;;;;;;;;5036726;28;20044;-66
2023/02/20 13:12:01;;;;;;;2.88;2.42;;;;;;;;;;5036152;28;20473;-66
2023/02/20 13:14:32;;;;;;;2.67;2.47;;;;;;;;;;5036388;28;20040;-66
2023/02/20 13:17:05;;;;;;;2.35;2.10;;;;;;;;;;5001918;28;20401;-66
2023/02/20 13:19:31;;;;;;;1.40;1.05;;;;;;;;;;5036261;28;20029;-66
2023/02/20 13:21:57;;;;;;;2.78;2.35;;;;;;;;;;5018371;28;20347;-66
2023/02/20 13:24:22;;;;;;;3.40;3.10;;;;;;;;;;5019157;28;20093;-66
2023/02/20 13:26:47;;;;;;;4.43;4.03;;;;;;;;;;5036735;28;20040;-66
2023/02/20 13:29:17;;;;;;;4.10;3.22;;;;;;;;;;5036579;28;20480;-66
2023/02/20 13:31:47;;;;;;;3.97;3.67;;;;;;;;;;5017478;28;20557;-66
2023/02/20 13:34:12;;;;;;;2.47;1.70;;;;;;;;;;5035744;28;20145;-66
2023/02/20 13:36:42;;;;;;;2.78;2.53;;;;;;;;;;5035923;28;20071;-66
2023/02/20 13:39:33;;;;;;;1.90;1.35;;;;;;;;;;5035939;28;20065;-66
2023/02/20 13:42:03;;;;;;;3.17;2.90;;;;;;;;;;5018248;28;20071;-65
2023/02/20 13:44:28;;;;;;;3.75;1.67;;;;;;;;;;5035843;28;20083;-66
2023/02/20 13:46:57;;;;;;;5.15;3.90;;;;;;;;;;5035332;28;20045;-66
2023/02/20 13:49:41;;;;;;;4.00;3.15;;;;;;;;;;5035433;28;20115;-65
2023/02/20 13:52:25;;;;;;;3.28;2.97;;;;;;;;;;5035658;28;20034;-66
2023/02/20 13:54:50;;;;;;;2.40;2.20;;;;;;;;;;5035610;28;20121;-66
2023/02/20 13:57:17;;;;;;;5.07;3.63;;;;;;;;;;5035479;28;20116;-65
2023/02/20 13:59:42;;;;;;;4.85;3.67;;;;;;;;;;5035251;28;20084;-65
2023/02/20 14:02:16;;;;;;;1.73;1.55;;;;;;;;;;5035204;28;20546;-59
2023/02/20 14:05:04;;;;;;;1.17;0.77;;;;;;;;;;5017689;28;20022;-65
2023/02/20 14:07:42;;;;;;;3.17;2.85;;;;;;;;;;5035407;28;20029;-65
2023/02/20 14:10:26;;;;;;;1.15;1.00;;;;;;;;;;5035067;28;20022;-66
2023/02/20 14:12:54;;;;;;;3.78;3.03;;;;;;;;;;5035545;28;20064;-59
2023/02/20 14:15:19;;;;;;;4.05;3.63;;;;;;;;;;5034935;28;20021;-59
2023/02/20 14:17:44;;;;;;;2.15;1.00;;;;;;;;;;5034826;28;20362;-59
2023/02/20 14:20:33;;;;;;;1.58;1.48;;;;;;;;;;5034861;28;20036;-59
2023/02/20 14:23:13;;;;;;;2.20;2.05;;;;;;;;;;5026602;28;20049;-60
2023/02/20 14:25:38;;;;;;;2.75;1.95;;;;;;;;;;5018179;28;20076;-59
2023/02/20 14:28:06;;;;;;;2.78;1.63;;;;;;;;;;5034924;28;20057;-60
2023/02/20 14:30:32;;;;;;;2.72;2.53;;;;;;;;;;5034690;28;20385;-59
2023/02/20 14:33:00;;;;;;;4.30;3.30;;;;;;;;;;5034950;28;20163;-60
2023/02/20 14:35:30;;;;;;;4.00;3.60;;;;;;;;;;5033496;28;20030;-59
2023/02/20 14:38:04;;;;;;;3.28;2.97;;;;;;;;;;5016422;28;20469;-59
2023/02/20 14:40:35;;;;;;;2.83;2.28;;;;;;;;;;5034192;28;20029;-59
2023/02/20 14:43:02;;;;;;;2.35;2.00;;;;;;;;;;5034050;28;20025;-59
2023/02/20 14:45:27;;;;;;;3.53;3.20;;;;;;;;;;5015729;28;20127;-59
2023/02/20 14:47:53;;;;;;;1.55;1.25;;;;;;;;;;5033893;28;20056;-59
2023/02/20 14:50:24;;;;;;;3.28;2.97;;;;;;;;;;5034112;28;20075;-59
2023/02/20 14:53:16;;;;;;;2.88;2.53;;;;;;;;;;5033555;28;20033;-59
2023/02/20 14:55:42;;;;;;;4.47;3.60;;;;;;;;;;5013457;28;20077;-59
2023/02/20 14:58:12;;;;;;;2.08;1.90;;;;;;;;;;5033663;28;20131;-59
2023/02/20 15:00:38;;;;;;;4.00;3.08;;;;;;;;;;5033614;28;20438;-59
2023/02/20 15:03:10;;;;;;;4.95;3.13;;;;;;;;;;5034056;28;20080;-59
2023/02/20 15:05:39;;;;;;;3.20;2.90;;;;;;;;;;5033820;28;20351;-59
2023/02/20 15:08:19;;;;;;;2.65;2.13;;;;;;;;;;5033915;28;20040;-59
2023/02/20 15:10:49;;;;;;;3.70;1.90;;;;;;;;;;5033683;28;20030;-59